Alapaha, Georgia
Current Conditions -  °F | °C
As of 10:15 AM on Saturday 22 Nov 2014 (Local Time) from KTMA Reporting Station
Clear Clear  
Wind Chill: 58°   Ceiling: Unl
Heat Index: 58°   Visibility: 10mi
Dew Point: 46°   Wind: 8mph
Humidity: 62%   Direction: 60°ENE
Pressure: 30.38"   Gusts: NA
Location:  31.39°N, 83.22°W
Report Text: KTMA 221515Z AUTO 06007KT 10SM CLR 15/08 A3038 RMK AO2 T01470076
Loading
Personal Weather Stations






























Interactive Weather Map New forecast layout! Learn more

10-Day Weather Forecast

Advertisements
Track Severe Weather on mobile